AAL3204 KPHX-KLAX
Flight info
| Callsign | AAL3204 |
|---|---|
| Flight time | 0h 59m |
| Altitude | 30000 |
| Route | KEENS3 WLVRN ESTWD HLYWD1 |
| Aircraft | B738/M-SDE2E3FGHIRWXY/LB1 |
Departure
| Time | 2026-05-04 00:34 |
|---|---|
| Airport | Phoenix Sky Harbor International Airport (KPHX) |
Arrival
| Time | 2026-05-04 01:34 |
|---|---|
| Airport | Los Angeles International Airport (KLAX) |
| Time | Latitude | Longitude | Altitude | Speed | Heading |
|---|---|---|---|---|---|
| 2026-05-04 00:05 | 33.43752 | -111.99983 | 1130 ft | 0 kts | 90° |
| 2026-05-04 00:18 | 33.43752 | -112.00000 | 1135 ft | 4 kts | 90° |
| 2026-05-04 00:18 | 33.43752 | -112.00033 | 1132 ft | 4 kts | 90° |
| 2026-05-04 00:19 | 33.43752 | -112.00057 | 1133 ft | 1 kts | 90° |
| 2026-05-04 00:23 | 33.43752 | -112.00056 | 1130 ft | 0 kts | 90° |
| 2026-05-04 00:23 | 33.43755 | -112.00047 | 1133 ft | 2 kts | 61° |
| 2026-05-04 00:23 | 33.43771 | -112.00041 | 1133 ft | 4 kts | 16° |
| 2026-05-04 00:24 | 33.43798 | -112.00037 | 1131 ft | 4 kts | 2° |
| 2026-05-04 00:24 | 33.43807 | -112.00036 | 1131 ft | 0 kts | 3° |
| 2026-05-04 00:25 | 33.43815 | -112.00036 | 1130 ft | 4 kts | 3° |
| 2026-05-04 00:25 | 33.43870 | -112.00041 | 1133 ft | 10 kts | 337° |
| 2026-05-04 00:26 | 33.43904 | -112.00110 | 1132 ft | 10 kts | 276° |
| 2026-05-04 00:26 | 33.43904 | -112.00191 | 1130 ft | 10 kts | 269° |
| 2026-05-04 00:26 | 33.43904 | -112.00272 | 1130 ft | 10 kts | 270° |
| 2026-05-04 00:26 | 33.43897 | -112.00349 | 1130 ft | 9 kts | 242° |
| 2026-05-04 00:27 | 33.43841 | -112.00378 | 1133 ft | 9 kts | 184° |
| 2026-05-04 00:27 | 33.43780 | -112.00380 | 1134 ft | 9 kts | 179° |
| 2026-05-04 00:27 | 33.43720 | -112.00380 | 1132 ft | 9 kts | 179° |
| 2026-05-04 00:27 | 33.43662 | -112.00379 | 1132 ft | 8 kts | 179° |
| 2026-05-04 00:28 | 33.43605 | -112.00380 | 1131 ft | 8 kts | 181° |
| 2026-05-04 00:28 | 33.43550 | -112.00381 | 1132 ft | 8 kts | 180° |
| 2026-05-04 00:28 | 33.43497 | -112.00381 | 1132 ft | 8 kts | 180° |
| 2026-05-04 00:28 | 33.43439 | -112.00382 | 1132 ft | 9 kts | 181° |
| 2026-05-04 00:29 | 33.43372 | -112.00381 | 1132 ft | 10 kts | 179° |
| 2026-05-04 00:29 | 33.43297 | -112.00381 | 1133 ft | 11 kts | 179° |
| 2026-05-04 00:29 | 33.43229 | -112.00354 | 1132 ft | 11 kts | 132° |
| 2026-05-04 00:29 | 33.43215 | -112.00271 | 1135 ft | 10 kts | 90° |
| 2026-05-04 00:30 | 33.43214 | -112.00188 | 1135 ft | 10 kts | 91° |
| 2026-05-04 00:30 | 33.43216 | -112.00095 | 1131 ft | 12 kts | 89° |
| 2026-05-04 00:30 | 33.43217 | -111.99985 | 1135 ft | 14 kts | 90° |
| 2026-05-04 00:30 | 33.43215 | -111.99862 | 1134 ft | 15 kts | 91° |
| 2026-05-04 00:31 | 33.43214 | -111.99729 | 1132 ft | 17 kts | 89° |
| 2026-05-04 00:31 | 33.43215 | -111.99584 | 1135 ft | 18 kts | 89° |
| 2026-05-04 00:31 | 33.43216 | -111.99445 | 1134 ft | 14 kts | 89° |
| 2026-05-04 00:31 | 33.43209 | -111.99367 | 1132 ft | 5 kts | 126° |
| 2026-05-04 00:32 | 33.43208 | -111.99366 | 1132 ft | 0 kts | 130° |
| 2026-05-04 00:33 | 33.43196 | -111.99354 | 1135 ft | 4 kts | 147° |
| 2026-05-04 00:33 | 33.43110 | -111.99383 | 1136 ft | 8 kts | 251° |
| 2026-05-04 00:33 | 33.43102 | -111.99527 | 1134 ft | 44 kts | 270° |
| 2026-05-04 00:34 | 33.43104 | -112.00197 | 1133 ft | 114 kts | 269° |
| 2026-05-04 00:34 | 33.43097 | -112.01349 | 1250 ft | 160 kts | 270° |
| 2026-05-04 00:34 | 33.43136 | -112.02700 | 1940 ft | 164 kts | 268° |
| 2026-05-04 00:34 | 33.43124 | -112.04046 | 2766 ft | 165 kts | 262° |
| 2026-05-04 00:35 | 33.43074 | -112.05476 | 3281 ft | 186 kts | 263° |
| 2026-05-04 00:35 | 33.42957 | -112.07129 | 3470 ft | 209 kts | 253° |
| 2026-05-04 00:35 | 33.42433 | -112.08838 | 3695 ft | 227 kts | 245° |
| 2026-05-04 00:35 | 33.41850 | -112.10645 | 4015 ft | 248 kts | 246° |
| 2026-05-04 00:36 | 33.41230 | -112.12624 | 4578 ft | 258 kts | 246° |
| 2026-05-04 00:36 | 33.40600 | -112.14659 | 5297 ft | 259 kts | 247° |
| 2026-05-04 00:36 | 33.39978 | -112.16676 | 6125 ft | 261 kts | 247° |
| 2026-05-04 00:36 | 33.39351 | -112.18755 | 6774 ft | 266 kts | 251° |
| 2026-05-04 00:37 | 33.39202 | -112.20986 | 7473 ft | 278 kts | 274° |
| 2026-05-04 00:37 | 33.39526 | -112.23288 | 8176 ft | 282 kts | 275° |
| 2026-05-04 00:37 | 33.39880 | -112.25594 | 8918 ft | 285 kts | 275° |
| 2026-05-04 00:37 | 33.40244 | -112.27958 | 9615 ft | 290 kts | 275° |
| 2026-05-04 00:38 | 33.40607 | -112.30332 | 10223 ft | 295 kts | 275° |
| 2026-05-04 00:38 | 33.40983 | -112.32830 | 10471 ft | 316 kts | 276° |
| 2026-05-04 00:38 | 33.41383 | -112.35522 | 10649 ft | 338 kts | 276° |
| 2026-05-04 00:38 | 33.41807 | -112.38377 | 10816 ft | 357 kts | 277° |
| 2026-05-04 00:39 | 33.42247 | -112.41330 | 11197 ft | 367 kts | 276° |
| 2026-05-04 00:39 | 33.42699 | -112.44358 | 11811 ft | 370 kts | 277° |
| 2026-05-04 00:39 | 33.42999 | -112.46378 | 12241 ft | 372 kts | 276° |
| 2026-05-04 00:39 | 33.43452 | -112.49437 | 12973 ft | 371 kts | 276° |
| 2026-05-04 00:40 | 33.44047 | -112.53477 | 13924 ft | 372 kts | 276° |
| 2026-05-04 00:40 | 33.44495 | -112.56536 | 14564 ft | 373 kts | 276° |
| 2026-05-04 00:40 | 33.44799 | -112.58610 | 15026 ft | 374 kts | 276° |
| 2026-05-04 00:40 | 33.45155 | -112.61652 | 15695 ft | 372 kts | 270° |
| 2026-05-04 00:41 | 33.45220 | -112.64740 | 16404 ft | 370 kts | 267° |
| 2026-05-04 00:41 | 33.45194 | -112.67836 | 17056 ft | 372 kts | 266° |
| 2026-05-04 00:41 | 33.45179 | -112.70948 | 17675 ft | 374 kts | 267° |
| 2026-05-04 00:41 | 33.45198 | -112.74070 | 18268 ft | 376 kts | 268° |
| 2026-05-04 00:42 | 33.45234 | -112.77167 | 18832 ft | 376 kts | 268° |
| 2026-05-04 00:42 | 33.45444 | -112.80309 | 19350 ft | 382 kts | 279° |
| 2026-05-04 00:42 | 33.46332 | -112.83346 | 19881 ft | 388 kts | 288° |
| 2026-05-04 00:42 | 33.47397 | -112.86328 | 20423 ft | 389 kts | 289° |
| 2026-05-04 00:43 | 33.48473 | -112.89307 | 20945 ft | 390 kts | 289° |
| 2026-05-04 00:43 | 33.49548 | -112.92296 | 21454 ft | 391 kts | 289° |
| 2026-05-04 00:43 | 33.50618 | -112.95296 | 21945 ft | 392 kts | 288° |
| 2026-05-04 00:43 | 33.51675 | -112.98281 | 22433 ft | 393 kts | 288° |
| 2026-05-04 00:44 | 33.52745 | -113.01322 | 22903 ft | 394 kts | 288° |
| 2026-05-04 00:44 | 33.53810 | -113.04364 | 23394 ft | 395 kts | 288° |
| 2026-05-04 00:44 | 33.54862 | -113.07375 | 23759 ft | 396 kts | 288° |
| 2026-05-04 00:44 | 33.55928 | -113.10434 | 24124 ft | 397 kts | 288° |
| 2026-05-04 00:45 | 33.57002 | -113.13519 | 24482 ft | 399 kts | 288° |
| 2026-05-04 00:45 | 33.58073 | -113.16598 | 24842 ft | 400 kts | 288° |
| 2026-05-04 00:45 | 33.59132 | -113.19648 | 25209 ft | 401 kts | 288° |
| 2026-05-04 00:45 | 33.60212 | -113.22757 | 25563 ft | 402 kts | 288° |
| 2026-05-04 00:46 | 33.61290 | -113.25865 | 25926 ft | 403 kts | 288° |
| 2026-05-04 00:46 | 33.62365 | -113.28965 | 26408 ft | 400 kts | 288° |
| 2026-05-04 00:46 | 33.63418 | -113.32004 | 26975 ft | 396 kts | 288° |
| 2026-05-04 00:46 | 33.64471 | -113.35042 | 27570 ft | 391 kts | 288° |
| 2026-05-04 00:47 | 33.65511 | -113.38050 | 28107 ft | 388 kts | 288° |
| 2026-05-04 00:47 | 33.66541 | -113.41035 | 28598 ft | 386 kts | 288° |
| 2026-05-04 00:47 | 33.67566 | -113.44008 | 29374 ft | 384 kts | 287° |
| 2026-05-04 00:47 | 33.68586 | -113.46970 | 29857 ft | 383 kts | 287° |
| 2026-05-04 00:48 | 33.69607 | -113.49940 | 30058 ft | 386 kts | 287° |
| 2026-05-04 00:48 | 33.71656 | -113.55905 | 30078 ft | 384 kts | 287° |
| 2026-05-04 00:49 | 33.73667 | -113.61763 | 30062 ft | 380 kts | 287° |
| 2026-05-04 00:49 | 33.75685 | -113.67658 | 29770 ft | 382 kts | 287° |
| 2026-05-04 00:50 | 33.77711 | -113.73587 | 29774 ft | 383 kts | 287° |
| 2026-05-04 00:50 | 33.79728 | -113.79498 | 29761 ft | 384 kts | 287° |
| 2026-05-04 00:51 | 33.81753 | -113.85460 | 29754 ft | 384 kts | 287° |
| 2026-05-04 00:51 | 33.83775 | -113.91442 | 29790 ft | 389 kts | 287° |
| 2026-05-04 00:52 | 33.85832 | -113.97543 | 29757 ft | 400 kts | 287° |
| 2026-05-04 00:52 | 33.87950 | -114.03821 | 29752 ft | 408 kts | 287° |
| 2026-05-04 00:53 | 33.90085 | -114.10159 | 29721 ft | 407 kts | 287° |
| 2026-05-04 00:53 | 33.91542 | -114.16632 | 29737 ft | 402 kts | 278° |
| 2026-05-04 00:54 | 33.92593 | -114.23257 | 29729 ft | 402 kts | 277° |
| 2026-05-04 00:54 | 33.93667 | -114.29896 | 29728 ft | 402 kts | 278° |
| 2026-05-04 00:55 | 33.94763 | -114.36478 | 29726 ft | 403 kts | 278° |
| 2026-05-04 00:55 | 33.95879 | -114.43106 | 29716 ft | 403 kts | 278° |
| 2026-05-04 00:56 | 33.96992 | -114.49726 | 29724 ft | 403 kts | 278° |
| 2026-05-04 00:56 | 33.98096 | -114.56319 | 29718 ft | 403 kts | 278° |
| 2026-05-04 00:57 | 33.99202 | -114.62949 | 29713 ft | 402 kts | 277° |
| 2026-05-04 00:57 | 34.00297 | -114.69529 | 29714 ft | 402 kts | 277° |
| 2026-05-04 00:58 | 34.01396 | -114.76165 | 29711 ft | 403 kts | 277° |
| 2026-05-04 00:58 | 34.02484 | -114.82752 | 29720 ft | 402 kts | 277° |
| 2026-05-04 00:59 | 34.03574 | -114.89382 | 29716 ft | 402 kts | 277° |
| 2026-05-04 00:59 | 34.04655 | -114.95970 | 29720 ft | 402 kts | 277° |
| 2026-05-04 01:00 | 34.05739 | -115.02599 | 29736 ft | 402 kts | 277° |
| 2026-05-04 01:00 | 34.06814 | -115.09196 | 29767 ft | 402 kts | 277° |
| 2026-05-04 01:01 | 34.07889 | -115.15811 | 29736 ft | 400 kts | 277° |
| 2026-05-04 01:01 | 34.08956 | -115.22396 | 29726 ft | 398 kts | 277° |
| 2026-05-04 01:02 | 34.10009 | -115.28927 | 29735 ft | 398 kts | 277° |
| 2026-05-04 01:02 | 34.11062 | -115.35474 | 29701 ft | 390 kts | 277° |
| 2026-05-04 01:02 | 34.11566 | -115.38596 | 29720 ft | 378 kts | 277° |
| 2026-05-04 01:03 | 34.12064 | -115.41704 | 29731 ft | 375 kts | 277° |
| 2026-05-04 01:03 | 34.13048 | -115.47884 | 29744 ft | 374 kts | 276° |
| 2026-05-04 01:04 | 34.14026 | -115.54041 | 29751 ft | 376 kts | 277° |
| 2026-05-04 01:04 | 34.15009 | -115.60243 | 29737 ft | 376 kts | 277° |
| 2026-05-04 01:05 | 34.15994 | -115.66470 | 29735 ft | 378 kts | 277° |
| 2026-05-04 01:05 | 34.16092 | -115.72724 | 29765 ft | 372 kts | 262° |
| 2026-05-04 01:06 | 34.15441 | -115.78904 | 29783 ft | 373 kts | 262° |
| 2026-05-04 01:06 | 34.14824 | -115.85134 | 29793 ft | 373 kts | 262° |
| 2026-05-04 01:07 | 34.14219 | -115.91362 | 29824 ft | 372 kts | 262° |
| 2026-05-04 01:07 | 34.13618 | -115.97527 | 29838 ft | 371 kts | 262° |
| 2026-05-04 01:08 | 34.13011 | -116.03723 | 29852 ft | 370 kts | 262° |
| 2026-05-04 01:08 | 34.12404 | -116.09903 | 29852 ft | 369 kts | 262° |
| 2026-05-04 01:08 | 34.12105 | -116.12945 | 29543 ft | 358 kts | 262° |
| 2026-05-04 01:09 | 34.11818 | -116.15852 | 29292 ft | 349 kts | 262° |
| 2026-05-04 01:09 | 34.11533 | -116.18740 | 29002 ft | 343 kts | 262° |
| 2026-05-04 01:09 | 34.11249 | -116.21597 | 28747 ft | 341 kts | 262° |
| 2026-05-04 01:09 | 34.10967 | -116.24440 | 28487 ft | 340 kts | 262° |
| 2026-05-04 01:10 | 34.10688 | -116.27233 | 28175 ft | 339 kts | 262° |
| 2026-05-04 01:10 | 34.10405 | -116.30060 | 27912 ft | 339 kts | 261° |
| 2026-05-04 01:10 | 34.10111 | -116.32881 | 27657 ft | 338 kts | 261° |
| 2026-05-04 01:10 | 34.09809 | -116.35704 | 27406 ft | 339 kts | 261° |
| 2026-05-04 01:11 | 34.09503 | -116.38542 | 27135 ft | 339 kts | 261° |
| 2026-05-04 01:11 | 34.09200 | -116.41364 | 26889 ft | 338 kts | 261° |
| 2026-05-04 01:11 | 34.08900 | -116.44153 | 26644 ft | 337 kts | 261° |
| 2026-05-04 01:11 | 34.08598 | -116.46955 | 26395 ft | 337 kts | 261° |
| 2026-05-04 01:12 | 34.08296 | -116.49758 | 26153 ft | 336 kts | 261° |
| 2026-05-04 01:12 | 34.07994 | -116.52564 | 25922 ft | 336 kts | 261° |
| 2026-05-04 01:12 | 34.07696 | -116.55325 | 25680 ft | 335 kts | 261° |
| 2026-05-04 01:12 | 34.07393 | -116.58115 | 25429 ft | 335 kts | 261° |
| 2026-05-04 01:13 | 34.07107 | -116.60903 | 25198 ft | 335 kts | 262° |
| 2026-05-04 01:13 | 34.06847 | -116.63700 | 24991 ft | 335 kts | 262° |
| 2026-05-04 01:13 | 34.06598 | -116.66460 | 24757 ft | 335 kts | 262° |
| 2026-05-04 01:13 | 34.06344 | -116.69251 | 24534 ft | 335 kts | 262° |
| 2026-05-04 01:14 | 34.06088 | -116.72041 | 24199 ft | 332 kts | 262° |
| 2026-05-04 01:14 | 34.05833 | -116.74797 | 23782 ft | 328 kts | 261° |
| 2026-05-04 01:14 | 34.05553 | -116.77514 | 23450 ft | 323 kts | 262° |
| 2026-05-04 01:14 | 34.05314 | -116.80174 | 22951 ft | 322 kts | 262° |
| 2026-05-04 01:15 | 34.05075 | -116.82845 | 22526 ft | 319 kts | 262° |
| 2026-05-04 01:15 | 34.04831 | -116.85492 | 22106 ft | 317 kts | 262° |
| 2026-05-04 01:15 | 34.04583 | -116.88126 | 21741 ft | 314 kts | 261° |
| 2026-05-04 01:15 | 34.04303 | -116.90748 | 21156 ft | 316 kts | 259° |
| 2026-05-04 01:16 | 34.03957 | -116.93364 | 20730 ft | 315 kts | 259° |
| 2026-05-04 01:16 | 34.03604 | -116.95966 | 20306 ft | 313 kts | 259° |
| 2026-05-04 01:16 | 34.03261 | -116.98552 | 19911 ft | 311 kts | 259° |
| 2026-05-04 01:16 | 34.02928 | -117.01093 | 19537 ft | 309 kts | 259° |
| 2026-05-04 01:17 | 34.02596 | -117.03655 | 19139 ft | 308 kts | 259° |
| 2026-05-04 01:17 | 34.02286 | -117.06220 | 18695 ft | 308 kts | 259° |
| 2026-05-04 01:17 | 34.01991 | -117.08741 | 18307 ft | 306 kts | 259° |
| 2026-05-04 01:17 | 34.01694 | -117.11279 | 17874 ft | 305 kts | 259° |
| 2026-05-04 01:18 | 34.01396 | -117.13814 | 17367 ft | 305 kts | 259° |
| 2026-05-04 01:18 | 34.01098 | -117.16338 | 17021 ft | 301 kts | 259° |
| 2026-05-04 01:18 | 34.00807 | -117.18792 | 16992 ft | 289 kts | 259° |
| 2026-05-04 01:18 | 34.00529 | -117.21136 | 16967 ft | 275 kts | 258° |
| 2026-05-04 01:19 | 34.00258 | -117.23406 | 16557 ft | 275 kts | 258° |
| 2026-05-04 01:19 | 33.99973 | -117.25750 | 15492 ft | 297 kts | 259° |
| 2026-05-04 01:19 | 33.99669 | -117.28265 | 14984 ft | 301 kts | 258° |
| 2026-05-04 01:19 | 33.99368 | -117.30776 | 14524 ft | 302 kts | 258° |
| 2026-05-04 01:20 | 33.99072 | -117.33285 | 14121 ft | 303 kts | 258° |
| 2026-05-04 01:20 | 33.98778 | -117.35801 | 13753 ft | 302 kts | 258° |
| 2026-05-04 01:20 | 33.98487 | -117.38281 | 13343 ft | 302 kts | 258° |
| 2026-05-04 01:20 | 33.98195 | -117.40776 | 12955 ft | 300 kts | 258° |
| 2026-05-04 01:21 | 33.97901 | -117.43269 | 12571 ft | 299 kts | 258° |
| 2026-05-04 01:21 | 33.97609 | -117.45744 | 12202 ft | 297 kts | 259° |
| 2026-05-04 01:21 | 33.97317 | -117.48209 | 12033 ft | 294 kts | 259° |
| 2026-05-04 01:21 | 33.97118 | -117.50643 | 11989 ft | 298 kts | 264° |
| 2026-05-04 01:22 | 33.97064 | -117.53128 | 11908 ft | 293 kts | 265° |
| 2026-05-04 01:22 | 33.97042 | -117.55674 | 11280 ft | 307 kts | 266° |
| 2026-05-04 01:22 | 33.97025 | -117.58252 | 10851 ft | 307 kts | 266° |
| 2026-05-04 01:22 | 33.97003 | -117.60789 | 10513 ft | 304 kts | 266° |
| 2026-05-04 01:23 | 33.96974 | -117.63330 | 10198 ft | 301 kts | 266° |
| 2026-05-04 01:23 | 33.96940 | -117.65842 | 9923 ft | 297 kts | 266° |
| 2026-05-04 01:23 | 33.96905 | -117.68274 | 9923 ft | 282 kts | 265° |
| 2026-05-04 01:23 | 33.96870 | -117.70564 | 9900 ft | 270 kts | 265° |
| 2026-05-04 01:24 | 33.96832 | -117.72802 | 9737 ft | 264 kts | 265° |
| 2026-05-04 01:24 | 33.96793 | -117.74995 | 9347 ft | 261 kts | 265° |
| 2026-05-04 01:24 | 33.96752 | -117.77200 | 8779 ft | 264 kts | 265° |
| 2026-05-04 01:24 | 33.96710 | -117.79421 | 8321 ft | 264 kts | 266° |
| 2026-05-04 01:25 | 33.96670 | -117.81594 | 7941 ft | 261 kts | 265° |
| 2026-05-04 01:25 | 33.96632 | -117.83775 | 7643 ft | 259 kts | 265° |
| 2026-05-04 01:25 | 33.96591 | -117.85950 | 7358 ft | 259 kts | 265° |
| 2026-05-04 01:25 | 33.96547 | -117.88126 | 7017 ft | 260 kts | 265° |
| 2026-05-04 01:26 | 33.96518 | -117.89585 | 6777 ft | 262 kts | 264° |
| 2026-05-04 01:26 | 33.96473 | -117.91794 | 6433 ft | 264 kts | 266° |
| 2026-05-04 01:26 | 33.96430 | -117.94008 | 6136 ft | 265 kts | 266° |
| 2026-05-04 01:26 | 33.96372 | -117.96926 | 5846 ft | 261 kts | 266° |
| 2026-05-04 01:27 | 33.96341 | -117.98396 | 5697 ft | 259 kts | 266° |
| 2026-05-04 01:27 | 33.96298 | -118.00535 | 5464 ft | 257 kts | 267° |
| 2026-05-04 01:27 | 33.96255 | -118.02678 | 5243 ft | 255 kts | 267° |
| 2026-05-04 01:27 | 33.96212 | -118.04801 | 5019 ft | 252 kts | 267° |
| 2026-05-04 01:28 | 33.96169 | -118.06886 | 4918 ft | 242 kts | 268° |
| 2026-05-04 01:28 | 33.96129 | -118.08859 | 4821 ft | 228 kts | 267° |
| 2026-05-04 01:28 | 33.96091 | -118.10701 | 4721 ft | 217 kts | 267° |
| 2026-05-04 01:28 | 33.96054 | -118.12469 | 4623 ft | 205 kts | 267° |
| 2026-05-04 01:29 | 33.96016 | -118.14167 | 4385 ft | 201 kts | 266° |
| 2026-05-04 01:29 | 33.95939 | -118.15837 | 4118 ft | 198 kts | 264° |
| 2026-05-04 01:29 | 33.95822 | -118.17478 | 3876 ft | 194 kts | 263° |
| 2026-05-04 01:29 | 33.95698 | -118.19088 | 3620 ft | 192 kts | 261° |
| 2026-05-04 01:30 | 33.95547 | -118.20665 | 3355 ft | 190 kts | 262° |
| 2026-05-04 01:30 | 33.95386 | -118.22246 | 3120 ft | 186 kts | 261° |
| 2026-05-04 01:30 | 33.95233 | -118.23731 | 3063 ft | 172 kts | 260° |
| 2026-05-04 01:30 | 33.95078 | -118.25199 | 2581 ft | 183 kts | 261° |
| 2026-05-04 01:31 | 33.94910 | -118.26704 | 2314 ft | 181 kts | 260° |
| 2026-05-04 01:31 | 33.94736 | -118.28167 | 2059 ft | 170 kts | 259° |
| 2026-05-04 01:31 | 33.94565 | -118.29532 | 1814 ft | 161 kts | 262° |
| 2026-05-04 01:31 | 33.94465 | -118.30879 | 1439 ft | 159 kts | 263° |
| 2026-05-04 01:32 | 33.94340 | -118.32117 | 1302 ft | 141 kts | 260° |
| 2026-05-04 01:32 | 33.94223 | -118.33231 | 1128 ft | 131 kts | 262° |
| 2026-05-04 01:32 | 33.94111 | -118.34366 | 912 ft | 141 kts | 263° |
| 2026-05-04 01:32 | 33.94009 | -118.35526 | 691 ft | 140 kts | 262° |
| 2026-05-04 01:33 | 33.93884 | -118.36680 | 462 ft | 137 kts | 264° |
| 2026-05-04 01:33 | 33.93774 | -118.37786 | 286 ft | 128 kts | 264° |
| 2026-05-04 01:33 | 33.93686 | -118.38805 | 137 ft | 118 kts | 259° |
| 2026-05-04 01:33 | 33.93595 | -118.39677 | 125 ft | 88 kts | 263° |
| 2026-05-04 01:34 | 33.93532 | -118.40260 | 125 ft | 52 kts | 263° |
| 2026-05-04 01:34 | 33.93503 | -118.40545 | 125 ft | 17 kts | 263° |
| 2026-05-04 01:34 | 33.93497 | -118.40687 | 125 ft | 17 kts | 289° |
| 2026-05-04 01:34 | 33.93571 | -118.40759 | 122 ft | 11 kts | 318° |
| 2026-05-04 01:35 | 33.93601 | -118.40826 | 121 ft | 8 kts | 293° |
| 2026-05-04 01:35 | 33.93634 | -118.40876 | 124 ft | 8 kts | 323° |
| 2026-05-04 01:35 | 33.93687 | -118.40898 | 124 ft | 9 kts | 351° |
| 2026-05-04 01:35 | 33.93753 | -118.40910 | 122 ft | 8 kts | 351° |
| 2026-05-04 01:36 | 33.93768 | -118.40913 | 122 ft | 0 kts | 351° |
| 2026-05-04 01:37 | 33.93780 | -118.40914 | 124 ft | 3 kts | 356° |
| 2026-05-04 01:37 | 33.93788 | -118.40915 | 125 ft | 0 kts | 357° |
| 2026-05-04 01:37 | 33.93798 | -118.40916 | 123 ft | 3 kts | 356° |
| 2026-05-04 01:37 | 33.93830 | -118.40919 | 123 ft | 6 kts | 352° |
| 2026-05-04 01:38 | 33.93859 | -118.40958 | 123 ft | 8 kts | 277° |
| 2026-05-04 01:38 | 33.93849 | -118.41031 | 123 ft | 10 kts | 259° |
| 2026-05-04 01:38 | 33.93847 | -118.41119 | 125 ft | 11 kts | 285° |
| 2026-05-04 01:38 | 33.93911 | -118.41173 | 123 ft | 13 kts | 353° |
| 2026-05-04 01:39 | 33.93951 | -118.41179 | 122 ft | 1 kts | 353° |
| 2026-05-04 01:39 | 33.93969 | -118.41182 | 123 ft | 4 kts | 353° |
| 2026-05-04 01:39 | 33.94001 | -118.41170 | 125 ft | 6 kts | 33° |
| 2026-05-04 01:39 | 33.94016 | -118.41124 | 122 ft | 0 kts | 82° |
| 2026-05-04 01:40 | 33.94018 | -118.41107 | 125 ft | 4 kts | 83° |
| 2026-05-04 01:40 | 33.94019 | -118.41096 | 123 ft | 1 kts | 84° |
| 2026-05-04 01:41 | 33.94020 | -118.41085 | 125 ft | 1 kts | 83° |
| 2026-05-04 01:41 | 33.94021 | -118.41076 | 125 ft | 1 kts | 83° |
| 2026-05-04 01:41 | 33.94021 | -118.41074 | 125 ft | 0 kts | 83° |